createdAt,value
2019-03-27T00:02:00.594Z,4.60
2019-03-27T00:04:27.875Z,5.17
2019-03-27T00:06:55.162Z,5.77
2019-03-27T00:09:22.430Z,5.20
2019-03-27T00:11:50.455Z,4.90
2019-03-27T00:14:17.785Z,5.60
2019-03-27T00:16:45.179Z,5.17
2019-03-27T00:19:12.436Z,5.10
2019-03-27T00:21:39.707Z,5.20
2019-03-27T00:24:11.075Z,5.40
2019-03-27T00:26:38.430Z,5.00
2019-03-27T00:29:05.680Z,4.60
2019-03-27T00:31:33.150Z,4.40
2019-03-27T00:34:00.928Z,5.10
2019-03-27T00:36:28.186Z,4.97
2019-03-27T00:38:55.464Z,4.60
2019-03-27T00:41:22.841Z,4.27
2019-03-27T00:43:50.102Z,4.93
2019-03-27T00:46:17.498Z,4.60
2019-03-27T00:48:45.033Z,5.60
2019-03-27T00:51:12.629Z,4.97
2019-03-27T00:53:39.991Z,5.17
2019-03-27T00:56:07.375Z,4.73
2019-03-27T00:58:34.849Z,4.23
2019-03-27T01:01:12.174Z,4.50
2019-03-27T01:03:39.565Z,4.63
2019-03-27T01:06:06.937Z,4.73
2019-03-27T01:08:34.367Z,4.73
2019-03-27T01:11:01.725Z,4.43
2019-03-27T01:13:28.997Z,4.53
2019-03-27T01:15:56.551Z,4.80
2019-03-27T01:18:23.825Z,4.63
2019-03-27T01:20:51.102Z,4.53
2019-03-27T01:23:18.375Z,4.83
2019-03-27T01:25:45.768Z,5.07
2019-03-27T01:28:15.889Z,4.80
2019-03-27T01:30:43.194Z,4.80
2019-03-27T01:33:10.498Z,4.30
2019-03-27T01:35:37.768Z,4.50
2019-03-27T01:38:05.061Z,4.57
2019-03-27T01:40:32.364Z,5.07
2019-03-27T01:42:59.647Z,4.90
2019-03-27T01:45:26.960Z,4.70
2019-03-27T01:47:54.224Z,4.50
2019-03-27T01:50:21.479Z,5.10
2019-03-27T01:52:48.765Z,4.63
2019-03-27T01:55:16.055Z,4.43
2019-03-27T01:57:43.431Z,4.70
2019-03-27T02:00:10.701Z,5.80
2019-03-27T02:02:37.974Z,5.43
2019-03-27T02:05:05.299Z,5.70
2019-03-27T02:07:33.053Z,6.00
2019-03-27T02:10:00.685Z,4.90
2019-03-27T02:12:28.062Z,5.53
2019-03-27T02:14:55.329Z,4.97
2019-03-27T02:17:22.614Z,4.77
2019-03-27T02:19:49.879Z,4.77
2019-03-27T02:22:17.265Z,4.53
2019-03-27T02:24:44.553Z,4.67
2019-03-27T02:27:11.831Z,4.57
2019-03-27T02:29:39.619Z,4.63
2019-03-27T02:32:06.886Z,5.20
2019-03-27T02:34:34.192Z,4.80
2019-03-27T02:37:01.471Z,4.80
2019-03-27T02:39:28.782Z,5.10
2019-03-27T02:41:58.209Z,5.60
2019-03-27T02:44:25.840Z,4.47
2019-03-27T02:46:53.233Z,4.67
2019-03-27T02:49:25.527Z,5.27
2019-03-27T02:51:52.925Z,4.17
2019-03-27T02:54:20.188Z,4.53
2019-03-27T02:56:47.510Z,5.10
2019-03-27T02:59:17.946Z,4.53
2019-03-27T03:01:48.024Z,4.60
2019-03-27T03:04:14.761Z,5.00
2019-03-27T03:06:42.281Z,4.60
2019-03-27T03:09:09.678Z,4.70
2019-03-27T03:11:37.625Z,4.47
2019-03-27T03:14:05.016Z,4.80
2019-03-27T03:16:42.144Z,4.77
2019-03-27T03:19:01.968Z,4.57
2019-03-27T03:21:29.350Z,4.33
2019-03-27T03:23:58.687Z,4.37
2019-03-27T03:26:26.066Z,4.03
2019-03-27T03:28:53.592Z,4.80
2019-03-27T03:31:21.477Z,4.27
2019-03-27T03:33:48.790Z,4.90
2019-03-27T03:36:16.174Z,4.77
2019-03-27T03:38:43.653Z,4.57
2019-03-27T03:41:11.088Z,5.03
2019-03-27T03:43:38.394Z,4.87
2019-03-27T03:46:05.971Z,5.57
2019-03-27T03:48:33.711Z,4.30
2019-03-27T03:51:01.108Z,5.27
2019-03-27T03:53:28.574Z,4.50
2019-03-27T03:55:56.330Z,4.60
2019-03-27T03:58:26.332Z,4.67
2019-03-27T04:00:53.621Z,4.30
2019-03-27T04:03:22.564Z,4.57
2019-03-27T04:05:49.945Z,4.43
2019-03-27T04:08:17.214Z,4.83
2019-03-27T04:10:44.659Z,4.80
2019-03-27T04:13:12.504Z,4.53
2019-03-27T04:15:40.491Z,4.50
2019-03-27T04:18:07.737Z,5.07
2019-03-27T04:20:35.104Z,4.47
2019-03-27T04:23:02.585Z,4.70
2019-03-27T04:25:53.842Z,4.50
2019-03-27T04:27:59.520Z,4.80
2019-03-27T04:30:26.968Z,4.00
2019-03-27T04:32:54.554Z,4.60
2019-03-27T04:35:21.821Z,4.40
2019-03-27T04:37:49.310Z,4.83
2019-03-27T04:40:16.604Z,4.77
2019-03-27T04:42:44.023Z,4.23
2019-03-27T04:45:11.519Z,4.77
2019-03-27T04:47:38.829Z,5.07
2019-03-27T04:50:06.351Z,5.00
2019-03-27T04:52:34.135Z,4.80
2019-03-27T04:55:01.744Z,4.50
2019-03-27T04:57:29.167Z,6.93
2019-03-27T04:59:56.435Z,5.03
2019-03-27T05:02:23.734Z,4.53
2019-03-27T05:04:51.844Z,4.63
2019-03-27T05:07:19.283Z,4.77
2019-03-27T05:09:46.609Z,5.07
2019-03-27T05:12:13.918Z,4.70
2019-03-27T05:14:41.554Z,4.43
2019-03-27T05:17:10.845Z,5.00
2019-03-27T05:19:38.107Z,4.63
2019-03-27T05:22:05.395Z,4.60
2019-03-27T05:24:33.006Z,5.00
2019-03-27T05:27:00.267Z,4.50
2019-03-27T05:29:27.636Z,4.23
2019-03-27T05:31:54.895Z,4.40
2019-03-27T05:34:22.171Z,4.90
2019-03-27T05:36:52.653Z,5.00
2019-03-27T05:39:20.010Z,5.00
2019-03-27T05:41:47.300Z,4.90
2019-03-27T05:44:15.208Z,4.97
2019-03-27T05:46:42.481Z,4.87
2019-03-27T05:49:10.553Z,4.80
2019-03-27T05:51:37.965Z,5.20
2019-03-27T05:54:05.224Z,5.30
2019-03-27T05:56:32.595Z,5.33
2019-03-27T05:59:00.087Z,5.10
2019-03-27T06:01:30.929Z,5.47
2019-03-27T06:03:58.207Z,5.00
2019-03-27T06:06:25.635Z,5.07
2019-03-27T06:08:53.043Z,4.80
2019-03-27T06:11:20.352Z,4.87
2019-03-27T06:13:47.817Z,4.73
2019-03-27T06:16:15.539Z,5.20
2019-03-27T06:18:42.803Z,4.77
2019-03-27T06:21:10.787Z,4.97
2019-03-27T06:23:38.166Z,5.20
2019-03-27T06:26:05.580Z,5.50
2019-03-27T06:28:33.361Z,15.70
2019-03-27T06:31:00.639Z,5.23
2019-03-27T06:33:28.468Z,4.97
2019-03-27T06:35:55.807Z,4.53
2019-03-27T06:38:23.114Z,5.50
2019-03-27T06:40:50.518Z,4.80
2019-03-27T06:43:17.839Z,4.60
2019-03-27T06:45:45.143Z,5.23
2019-03-27T06:48:25.466Z,5.63
2019-03-27T06:50:41.585Z,5.30
2019-03-27T06:53:08.858Z,5.23
2019-03-27T06:55:36.106Z,5.13
2019-03-27T06:58:03.361Z,5.17
2019-03-27T07:00:35.191Z,5.17
2019-03-27T07:03:02.471Z,5.10
2019-03-27T07:05:33.438Z,5.40
2019-03-27T07:08:03.630Z,4.60
2019-03-27T07:10:30.901Z,5.57
2019-03-27T07:12:58.636Z,6.80
2019-03-27T07:15:26.286Z,7.20
2019-03-27T07:17:53.787Z,5.20
2019-03-27T07:20:21.418Z,5.90
2019-03-27T07:22:48.978Z,5.63
2019-03-27T07:25:21.378Z,6.63
2019-03-27T07:27:48.665Z,6.17
2019-03-27T07:30:16.167Z,5.83
2019-03-27T07:32:43.426Z,6.20
2019-03-27T07:35:10.681Z,6.40
2019-03-27T07:37:39.085Z,6.57
2019-03-27T07:40:12.260Z,6.90
2019-03-27T07:42:39.561Z,7.20
2019-03-27T07:45:07.089Z,7.10
2019-03-27T07:47:34.468Z,6.30
2019-03-27T07:50:01.771Z,7.10
2019-03-27T07:52:29.028Z,7.83
2019-03-27T07:54:56.302Z,7.70
2019-03-27T07:57:24.298Z,7.63
2019-03-27T07:59:51.589Z,8.40
2019-03-27T08:02:18.945Z,7.60
2019-03-27T08:04:46.226Z,9.07
2019-03-27T08:07:25.922Z,8.20
2019-03-27T08:09:44.738Z,9.50
2019-03-27T08:12:11.997Z,8.70
2019-03-27T08:14:39.598Z,8.80
2019-03-27T08:17:06.889Z,10.20
2019-03-27T08:19:34.161Z,8.77
2019-03-27T08:22:03.361Z,9.60
2019-03-27T08:24:30.654Z,10.10
2019-03-27T08:26:57.930Z,10.17
2019-03-27T08:29:29.918Z,11.57
2019-03-27T08:31:59.906Z,11.47
2019-03-27T08:34:27.287Z,12.00
2019-03-27T08:36:54.639Z,12.00
2019-03-27T08:39:22.007Z,11.37
2019-03-27T08:41:49.862Z,10.80
2019-03-27T08:44:17.142Z,11.83
2019-03-27T08:46:46.935Z,10.53
2019-03-27T08:49:22.006Z,9.47
2019-03-27T08:51:43.546Z,8.07
2019-03-27T08:54:10.953Z,8.73
2019-03-27T08:56:38.272Z,8.40
2019-03-27T08:59:05.815Z,6.50
2019-03-27T09:01:33.082Z,7.20
2019-03-27T09:04:00.418Z,7.67
2019-03-27T09:06:33.746Z,8.10
2019-03-27T09:08:57.322Z,8.10
2019-03-27T09:11:24.604Z,8.80
2019-03-27T09:13:52.194Z,8.67
2019-03-27T09:16:19.649Z,9.30
2019-03-27T09:18:47.482Z,10.33
2019-03-27T09:21:14.743Z,8.53
2019-03-27T09:23:45.444Z,9.90
2019-03-27T09:26:11.222Z,8.17
2019-03-27T09:28:38.488Z,9.17
2019-03-27T09:31:09.118Z,8.57
2019-03-27T09:33:36.354Z,8.80
2019-03-27T09:36:06.645Z,6.93
2019-03-27T09:38:33.968Z,8.27
2019-03-27T09:41:01.260Z,7.73
2019-03-27T09:43:28.522Z,5.87
2019-03-27T09:45:55.778Z,6.67
2019-03-27T09:48:25.094Z,6.83
2019-03-27T09:50:53.346Z,5.00
2019-03-27T09:53:21.145Z,5.43
2019-03-27T09:55:48.972Z,5.60
2019-03-27T09:58:16.266Z,5.50
2019-03-27T10:01:08.966Z,5.40
2019-03-27T10:03:36.295Z,5.00
2019-03-27T10:06:04.097Z,4.90
2019-03-27T10:08:31.428Z,5.63
2019-03-27T10:10:58.674Z,5.20
2019-03-27T10:13:26.388Z,5.30
2019-03-27T10:15:53.648Z,4.43
2019-03-27T10:18:21.188Z,5.53
2019-03-27T10:20:48.428Z,5.53
2019-03-27T10:23:16.178Z,5.03
2019-03-27T10:25:45.222Z,4.37
2019-03-27T10:28:12.480Z,4.60
2019-03-27T10:30:39.723Z,3.87
2019-03-27T10:33:07.576Z,4.23
2019-03-27T10:35:34.940Z,4.20
2019-03-27T10:38:02.213Z,3.87
2019-03-27T10:40:29.440Z,3.80
2019-03-27T10:42:59.674Z,3.90
2019-03-27T10:45:27.174Z,5.00
2019-03-27T10:47:54.418Z,4.90
2019-03-27T10:50:21.682Z,4.33
2019-03-27T10:52:48.960Z,3.70
2019-03-27T10:55:17.504Z,3.63
2019-03-27T10:57:44.879Z,12.03
2019-03-27T11:00:12.255Z,5.00
2019-03-27T11:02:39.636Z,3.70
2019-03-27T11:05:07.411Z,3.40
2019-03-27T11:07:38.489Z,4.30
2019-03-27T11:10:05.849Z,3.33
2019-03-27T11:12:33.146Z,3.20
2019-03-27T11:15:00.538Z,3.20
2019-03-27T11:17:29.865Z,3.40
2019-03-27T11:19:57.096Z,3.53
2019-03-27T11:22:24.498Z,4.07
2019-03-27T11:24:54.282Z,2.83
2019-03-27T11:27:21.567Z,3.00
2019-03-27T11:29:49.036Z,3.93
2019-03-27T11:32:16.333Z,4.97
2019-03-27T11:34:43.559Z,4.50
2019-03-27T11:37:11.206Z,5.00
2019-03-27T11:39:38.868Z,4.00
2019-03-27T11:42:06.145Z,3.77
2019-03-27T11:44:34.448Z,4.07
2019-03-27T11:47:01.790Z,4.33
2019-03-27T11:49:29.862Z,3.73
2019-03-27T11:51:57.467Z,3.53
2019-03-27T11:54:24.898Z,3.93
2019-03-27T11:56:52.313Z,3.80
2019-03-27T11:59:19.643Z,3.60
2019-03-27T12:01:48.696Z,3.40
2019-03-27T12:04:16.085Z,4.90
2019-03-27T12:06:43.439Z,4.30
2019-03-27T12:09:10.824Z,4.17
2019-03-27T12:11:38.269Z,3.90
2019-03-27T12:14:06.020Z,5.27
2019-03-27T12:16:33.490Z,4.80
2019-03-27T12:19:01.302Z,4.37
2019-03-27T12:21:29.591Z,3.43
2019-03-27T12:23:56.847Z,5.23
2019-03-27T12:26:24.215Z,4.57
2019-03-27T12:28:51.575Z,4.30
2019-03-27T12:31:18.815Z,4.70
2019-03-27T12:33:46.275Z,4.20
2019-03-27T12:36:13.562Z,4.10
2019-03-27T12:38:42.844Z,3.83
2019-03-27T12:41:10.134Z,5.00
2019-03-27T12:43:44.563Z,4.73
2019-03-27T12:46:11.923Z,4.67
2019-03-27T12:48:39.267Z,4.50
2019-03-27T12:51:12.600Z,3.87
2019-03-27T12:53:35.836Z,4.60
2019-03-27T12:56:03.195Z,4.20
2019-03-27T12:58:30.672Z,4.00
2019-03-27T13:00:57.957Z,4.10
2019-03-27T13:03:27.363Z,4.70
2019-03-27T13:05:54.740Z,5.60
2019-03-27T13:08:21.997Z,4.17
2019-03-27T13:10:49.260Z,4.30
2019-03-27T13:13:16.530Z,4.63
2019-03-27T13:15:43.805Z,5.37
2019-03-27T13:18:13.203Z,4.67
2019-03-27T13:20:40.706Z,4.60
2019-03-27T13:23:07.981Z,4.70
2019-03-27T13:25:35.227Z,4.87
2019-03-27T13:28:02.677Z,4.50
2019-03-27T13:30:32.641Z,4.83
2019-03-27T13:33:00.889Z,4.83
2019-03-27T13:35:28.239Z,4.10
2019-03-27T13:37:55.465Z,4.67
2019-03-27T13:40:24.002Z,4.60
2019-03-27T13:42:51.253Z,5.00
2019-03-27T13:45:18.844Z,5.30
2019-03-27T13:47:46.228Z,4.60
2019-03-27T13:50:17.979Z,4.30
2019-03-27T13:52:45.658Z,4.50
2019-03-27T13:55:13.129Z,4.83
2019-03-27T13:57:40.591Z,4.50
2019-03-27T14:00:09.412Z,5.17
2019-03-27T14:02:36.838Z,5.20
2019-03-27T14:05:05.259Z,4.87
2019-03-27T14:07:32.661Z,4.90
2019-03-27T14:10:00.051Z,5.43
2019-03-27T14:12:28.089Z,5.13
2019-03-27T14:14:58.896Z,4.43
2019-03-27T14:17:26.298Z,5.17
2019-03-27T14:19:53.695Z,5.07
2019-03-27T14:22:20.952Z,4.77
2019-03-27T14:24:48.247Z,4.90
2019-03-27T14:27:15.565Z,4.67
2019-03-27T14:29:42.839Z,5.33
2019-03-27T14:32:10.966Z,5.77
2019-03-27T14:34:38.383Z,4.77
2019-03-27T14:37:06.809Z,5.47
2019-03-27T14:39:35.335Z,5.03
2019-03-27T14:42:02.827Z,4.93
2019-03-27T14:44:30.082Z,5.07
2019-03-27T14:47:00.357Z,4.83
2019-03-27T14:49:28.300Z,4.90
2019-03-27T14:52:08.110Z,5.20
2019-03-27T14:54:28.459Z,6.10
2019-03-27T14:56:56.424Z,5.07
2019-03-27T14:59:23.953Z,4.47
2019-03-27T15:01:52.568Z,5.60
2019-03-27T15:04:20.198Z,5.00
2019-03-27T15:06:48.657Z,4.97
2019-03-27T15:09:15.947Z,9.30
2019-03-27T15:11:43.334Z,5.90
2019-03-27T15:14:10.598Z,5.47
2019-03-27T15:16:39.855Z,6.03
2019-03-27T15:19:07.179Z,6.40
2019-03-27T15:21:34.637Z,5.80
2019-03-27T15:24:02.125Z,5.43
2019-03-27T15:26:29.449Z,5.27
2019-03-27T15:28:56.922Z,5.50
2019-03-27T15:31:24.258Z,5.63
2019-03-27T15:33:51.755Z,6.50
2019-03-27T15:36:19.027Z,4.50
2019-03-27T15:38:46.255Z,5.37
2019-03-27T15:41:13.529Z,5.40
2019-03-27T15:43:40.782Z,5.27
2019-03-27T15:46:08.698Z,4.97
2019-03-27T15:48:35.966Z,4.70
2019-03-27T15:51:03.275Z,5.50
2019-03-27T15:53:30.917Z,5.50
2019-03-27T15:55:58.196Z,5.00
2019-03-27T15:58:25.894Z,5.40
2019-03-27T16:00:53.209Z,5.77
2019-03-27T16:03:22.143Z,6.40
2019-03-27T16:05:49.820Z,5.43
2019-03-27T16:08:17.587Z,4.90
2019-03-27T16:10:44.849Z,5.30
2019-03-27T16:13:12.229Z,5.40
2019-03-27T16:15:39.517Z,4.97
2019-03-27T16:18:07.359Z,5.23
2019-03-27T16:20:34.749Z,5.63
2019-03-27T16:23:02.309Z,5.60
2019-03-27T16:25:32.030Z,6.50
2019-03-27T16:27:59.561Z,5.17
2019-03-27T16:30:30.201Z,6.33
2019-03-27T16:32:57.453Z,5.83
2019-03-27T16:35:24.811Z,5.40
2019-03-27T16:37:54.010Z,5.93
2019-03-27T16:40:44.901Z,5.77
2019-03-27T16:43:12.186Z,6.40
2019-03-27T16:45:39.474Z,7.40
2019-03-27T16:48:09.633Z,7.57
2019-03-27T16:50:36.952Z,5.67
2019-03-27T16:53:04.280Z,5.57
2019-03-27T16:55:32.438Z,5.80
2019-03-27T16:57:59.885Z,6.47
2019-03-27T17:00:27.637Z,5.83
2019-03-27T17:02:55.248Z,5.50
2019-03-27T17:05:22.674Z,6.40
2019-03-27T17:07:49.995Z,6.00
2019-03-27T17:10:17.657Z,5.63
2019-03-27T17:12:48.131Z,6.67
2019-03-27T17:15:15.526Z,5.63
2019-03-27T17:17:45.163Z,6.40
2019-03-27T17:20:12.951Z,6.43
2019-03-27T17:22:41.329Z,6.33
2019-03-27T17:25:09.186Z,7.00
2019-03-27T17:27:36.841Z,5.80
2019-03-27T17:30:05.106Z,5.87
2019-03-27T17:32:32.393Z,6.60
2019-03-27T17:34:59.814Z,5.73
2019-03-27T17:37:27.688Z,6.20
2019-03-27T17:39:55.055Z,6.27
2019-03-27T17:42:22.483Z,5.60
2019-03-27T17:44:52.126Z,6.43
2019-03-27T17:47:19.341Z,6.67
2019-03-27T17:49:47.892Z,9.10
2019-03-27T17:52:15.565Z,8.03
2019-03-27T17:54:43.036Z,6.70
2019-03-27T17:57:10.643Z,7.50
2019-03-27T17:59:38.018Z,6.50
2019-03-27T18:02:07.673Z,7.20
2019-03-27T18:04:35.087Z,6.37
2019-03-27T18:07:02.975Z,7.30
2019-03-27T18:09:30.398Z,7.20
2019-03-27T18:11:57.776Z,7.47
2019-03-27T18:14:30.608Z,7.80
2019-03-27T18:16:58.044Z,7.33
2019-03-27T18:19:25.451Z,7.47
2019-03-27T18:22:06.720Z,7.43
2019-03-27T18:24:22.481Z,7.40
2019-03-27T18:26:49.781Z,7.00
2019-03-27T18:29:17.402Z,8.30
2019-03-27T18:31:46.505Z,7.40
2019-03-27T18:34:16.230Z,7.77
2019-03-27T18:36:43.738Z,7.60
2019-03-27T18:39:13.009Z,7.97
2019-03-27T18:41:46.130Z,8.13
2019-03-27T18:44:20.416Z,6.90
2019-03-27T18:46:49.474Z,6.90
2019-03-27T18:49:22.372Z,6.97
2019-03-27T18:51:49.888Z,7.00
2019-03-27T18:54:27.125Z,6.23
2019-03-27T18:56:55.857Z,6.57
2019-03-27T18:59:31.259Z,6.00
2019-03-27T19:01:59.272Z,6.37
2019-03-27T19:04:36.564Z,5.77
2019-03-27T19:07:03.966Z,6.67
2019-03-27T19:09:35.094Z,6.80
2019-03-27T19:12:02.452Z,6.50
2019-03-27T19:14:35.707Z,6.10
2019-03-27T19:17:04.698Z,5.80
2019-03-27T19:19:32.170Z,5.40
2019-03-27T19:21:59.625Z,5.47
2019-03-27T19:24:27.130Z,9.40
2019-03-27T19:26:54.556Z,5.53
2019-03-27T19:29:30.286Z,4.50
2019-03-27T19:31:57.568Z,4.53
2019-03-27T19:34:25.700Z,4.83
2019-03-27T19:36:53.177Z,4.67
2019-03-27T19:39:20.463Z,4.60
2019-03-27T19:41:47.799Z,5.33
2019-03-27T19:44:19.743Z,4.63
2019-03-27T19:46:50.896Z,4.27
2019-03-27T19:49:19.224Z,4.30
2019-03-27T19:51:46.632Z,5.00
2019-03-27T19:54:26.489Z,3.67
2019-03-27T19:56:43.604Z,3.60
2019-03-27T19:59:18.640Z,4.63
2019-03-27T20:01:49.074Z,5.70
2019-03-27T20:04:16.370Z,3.73
2019-03-27T20:06:44.192Z,4.13
2019-03-27T20:09:11.478Z,3.60
2019-03-27T20:11:38.897Z,3.33
2019-03-27T20:14:06.614Z,4.30
2019-03-27T20:16:34.106Z,3.77
2019-03-27T20:19:01.394Z,4.07
2019-03-27T20:21:28.678Z,3.93
2019-03-27T20:23:56.273Z,3.80
2019-03-27T20:26:23.676Z,3.93
2019-03-27T20:28:51.331Z,4.10
2019-03-27T20:31:18.728Z,3.60
2019-03-27T20:33:46.120Z,3.70
2019-03-27T20:36:14.264Z,3.80
2019-03-27T20:38:41.684Z,3.70
2019-03-27T20:41:08.996Z,4.13
2019-03-27T20:43:36.667Z,3.80
2019-03-27T20:46:04.100Z,3.83
2019-03-27T20:48:31.681Z,3.60
2019-03-27T20:50:59.197Z,3.70
2019-03-27T20:53:29.688Z,3.40
2019-03-27T20:55:57.119Z,4.27
2019-03-27T20:58:24.467Z,4.10
2019-03-27T21:00:51.889Z,3.80
2019-03-27T21:03:19.272Z,3.90
2019-03-27T21:05:46.582Z,4.23
2019-03-27T21:08:19.251Z,4.87
2019-03-27T21:10:46.753Z,4.00
2019-03-27T21:13:14.754Z,4.77
2019-03-27T21:15:44.094Z,4.50
2019-03-27T21:18:11.637Z,4.60
2019-03-27T21:20:41.455Z,4.63
2019-03-27T21:23:09.221Z,4.43
2019-03-27T21:25:36.589Z,4.90
2019-03-27T21:28:04.035Z,4.40
2019-03-27T21:30:31.408Z,4.70
2019-03-27T21:32:59.156Z,4.80
2019-03-27T21:35:28.915Z,4.53
2019-03-27T21:37:56.069Z,5.03
2019-03-27T21:40:26.107Z,4.50
2019-03-27T21:42:56.396Z,4.17
2019-03-27T21:45:23.750Z,4.40
2019-03-27T21:47:51.343Z,4.37
2019-03-27T21:50:18.973Z,4.87
2019-03-27T21:53:00.006Z,5.10
2019-03-27T21:55:22.580Z,4.97
2019-03-27T21:57:45.827Z,4.47
2019-03-27T22:00:17.702Z,4.90
2019-03-27T22:02:46.305Z,5.57
2019-03-27T22:05:13.615Z,4.73
2019-03-27T22:07:41.267Z,4.70
2019-03-27T22:10:10.249Z,4.70
2019-03-27T22:12:38.449Z,5.20
2019-03-27T22:15:07.898Z,4.30
2019-03-27T22:17:35.413Z,4.67
2019-03-27T22:20:03.002Z,5.17
2019-03-27T22:22:31.331Z,5.30
2019-03-27T22:24:58.629Z,4.90
2019-03-27T22:27:26.025Z,4.70
2019-03-27T22:29:53.335Z,5.13
2019-03-27T22:32:20.796Z,4.60
2019-03-27T22:34:50.461Z,5.07
2019-03-27T22:37:28.735Z,5.00
2019-03-27T22:39:56.745Z,4.87
2019-03-27T22:42:24.508Z,4.93
2019-03-27T22:44:51.884Z,4.37
2019-03-27T22:47:19.223Z,4.57
2019-03-27T22:49:48.187Z,4.77
2019-03-27T22:52:15.503Z,4.67
2019-03-27T22:54:43.575Z,4.43
2019-03-27T22:57:10.955Z,5.30
2019-03-27T22:59:38.362Z,4.43
2019-03-27T23:02:05.687Z,4.07
2019-03-27T23:04:32.983Z,4.73
2019-03-27T23:07:01.272Z,5.00
2019-03-27T23:09:29.106Z,5.00
2019-03-27T23:11:56.455Z,4.40
2019-03-27T23:14:24.249Z,4.87
2019-03-27T23:16:51.547Z,5.70
2019-03-27T23:19:18.825Z,4.73
2019-03-27T23:21:47.708Z,5.40
2019-03-27T23:24:15.043Z,5.60
2019-03-27T23:26:42.507Z,5.07
2019-03-27T23:29:09.917Z,5.63
2019-03-27T23:31:39.533Z,5.10
2019-03-27T23:34:06.812Z,5.80
2019-03-27T23:36:35.048Z,4.83
2019-03-27T23:39:02.885Z,5.30
2019-03-27T23:41:30.333Z,5.00
2019-03-27T23:43:57.671Z,4.40
2019-03-27T23:46:25.051Z,5.10
2019-03-27T23:48:52.357Z,5.13
2019-03-27T23:51:19.653Z,5.20
2019-03-27T23:53:47.059Z,5.40
2019-03-27T23:56:16.756Z,4.50
2019-03-27T23:58:43.861Z,4.80
